KFOA

Details ICAO KFOA
Name FLORA MUNI
Region United States
Timezone America/Chicago (UTC-5.0)
Plans Departing 0
Arriving 2
Stats Elevation 473 ft / 144 m (AMSL)
Location 38.665239° -88.453101°
Runways 2
Magnetic Variation 2.886° W
Sunrise 2018-05-26 10:35:20 UTC / 2018-05-26 05:35:20 Local
Sunset 2018-05-27 01:09:18 UTC / 2018-05-26 20:09:18 Local
Advertisement - Login to hide

Runways

ID Width Length Bearing (true) Bearing (mag) Surface Threshold Offset Overrun Length
03 75 ft / 23 m 5,008 ft / 1,526 m 29.55° 32.44° Asphalt 0 ft / 0 m 0 ft / 0 m
15 100 ft / 30 m 2,702 ft / 824 m 147.31° 150.20° Dirt 160 ft / 49 m 0 ft / 0 m
21 75 ft / 23 m 5,008 ft / 1,526 m 209.56° 212.45° Asphalt 0 ft / 0 m 0 ft / 0 m
33 100 ft / 30 m 2,702 ft / 824 m 327.32° 330.21° Dirt 0 ft / 0 m 0 ft / 0 m

Map

Weather


0- 5 10 15 20 25 30 35+ Temperature / ° C

Clouds and Precipitation
Forecast for 2018-05-27 06:00 UTC. Updated 5 minutes ago

Ground ~20,000 ft ~40,000 ft Winds

METAR

KFOA 270515Z AUTO 20004KT 10SM CLR 24/21 A2985 RMK AO2 LTG DSNT W T02350212

TAF

Not found

Frequencies

Recorded 120.17 MHz AWOS 3
Unicom 122.70 MHz CTAF/UNICOM
Warning: Do not use this data for real-world aviation or navigation. No guarantee of current accuracy is given.